sensor_id;sensor_type;location;lat;lon;timestamp;temperature;humidity
2955;DHT22;1487;51.470;6.938;2024-03-06T00:02:20;4.60;99.90
2955;DHT22;1487;51.470;6.938;2024-03-06T00:04:48;4.70;99.90
2955;DHT22;1487;51.470;6.938;2024-03-06T00:07:15;4.70;99.90
2955;DHT22;1487;51.470;6.938;2024-03-06T00:09:42;4.70;99.90
2955;DHT22;1487;51.470;6.938;2024-03-06T00:12:10;4.60;99.90
2955;DHT22;1487;51.470;6.938;2024-03-06T00:14:37;4.70;99.90
2955;DHT22;1487;51.470;6.938;2024-03-06T00:17:05;4.70;99.90
2955;DHT22;1487;51.470;6.938;2024-03-06T00:19:32;4.70;99.90
2955;DHT22;1487;51.470;6.938;2024-03-06T00:22:00;4.60;99.90
2955;DHT22;1487;51.470;6.938;2024-03-06T00:24:28;4.60;99.90
2955;DHT22;1487;51.470;6.938;2024-03-06T00:26:55;4.70;99.90
2955;DHT22;1487;51.470;6.938;2024-03-06T00:29:22;4.70;99.90
2955;DHT22;1487;51.470;6.938;2024-03-06T00:31:49;4.70;99.90
2955;DHT22;1487;51.470;6.938;2024-03-06T00:34:17;4.60;99.90
2955;DHT22;1487;51.470;6.938;2024-03-06T00:36:44;4.60;99.90
2955;DHT22;1487;51.470;6.938;2024-03-06T00:39:11;4.50;99.90
2955;DHT22;1487;51.470;6.938;2024-03-06T00:41:40;4.50;99.90
2955;DHT22;1487;51.470;6.938;2024-03-06T00:44:07;4.50;99.90
2955;DHT22;1487;51.470;6.938;2024-03-06T00:46:34;4.50;99.90
2955;DHT22;1487;51.470;6.938;2024-03-06T00:49:01;4.40;99.90
2955;DHT22;1487;51.470;6.938;2024-03-06T00:51:29;4.40;99.90
2955;DHT22;1487;51.470;6.938;2024-03-06T00:53:56;4.40;99.90
2955;DHT22;1487;51.470;6.938;2024-03-06T00:56:23;4.40;99.90
2955;DHT22;1487;51.470;6.938;2024-03-06T00:58:50;4.40;99.90
2955;DHT22;1487;51.470;6.938;2024-03-06T01:01:17;4.30;99.90
2955;DHT22;1487;51.470;6.938;2024-03-06T01:03:46;4.20;99.90
2955;DHT22;1487;51.470;6.938;2024-03-06T01:06:13;4.20;99.90
2955;DHT22;1487;51.470;6.938;2024-03-06T01:08:41;4.10;99.90
2955;DHT22;1487;51.470;6.938;2024-03-06T01:11:08;4.10;99.90
2955;DHT22;1487;51.470;6.938;2024-03-06T01:13:39;4.10;99.90
2955;DHT22;1487;51.470;6.938;2024-03-06T01:16:07;4.00;99.90
2955;DHT22;1487;51.470;6.938;2024-03-06T01:18:35;4.00;99.90
2955;DHT22;1487;51.470;6.938;2024-03-06T01:21:02;4.00;99.90
2955;DHT22;1487;51.470;6.938;2024-03-06T01:23:30;4.00;99.90
2955;DHT22;1487;51.470;6.938;2024-03-06T01:25:58;4.00;99.90
2955;DHT22;1487;51.470;6.938;2024-03-06T01:28:26;4.00;99.90
2955;DHT22;1487;51.470;6.938;2024-03-06T01:30:53;4.00;99.90
2955;DHT22;1487;51.470;6.938;2024-03-06T01:33:20;4.00;99.90
2955;DHT22;1487;51.470;6.938;2024-03-06T01:35:47;4.00;99.90
2955;DHT22;1487;51.470;6.938;2024-03-06T01:38:15;3.90;99.90
2955;DHT22;1487;51.470;6.938;2024-03-06T01:40:43;4.00;99.90
2955;DHT22;1487;51.470;6.938;2024-03-06T01:43:21;4.00;99.90
2955;DHT22;1487;51.470;6.938;2024-03-06T01:45:48;4.10;99.90
2955;DHT22;1487;51.470;6.938;2024-03-06T01:48:16;4.10;99.90
2955;DHT22;1487;51.470;6.938;2024-03-06T01:50:42;4.10;99.90
2955;DHT22;1487;51.470;6.938;2024-03-06T01:53:12;4.10;99.90
2955;DHT22;1487;51.470;6.938;2024-03-06T01:55:39;4.10;99.90
2955;DHT22;1487;51.470;6.938;2024-03-06T01:58:07;4.10;99.90
2955;DHT22;1487;51.470;6.938;2024-03-06T02:00:36;4.00;99.90
2955;DHT22;1487;51.470;6.938;2024-03-06T02:03:04;3.90;99.90
2955;DHT22;1487;51.470;6.938;2024-03-06T02:05:33;3.90;99.90
2955;DHT22;1487;51.470;6.938;2024-03-06T02:08:00;3.80;99.90
2955;DHT22;1487;51.470;6.938;2024-03-06T02:10:28;3.80;99.90
2955;DHT22;1487;51.470;6.938;2024-03-06T02:12:56;3.80;99.90
2955;DHT22;1487;51.470;6.938;2024-03-06T02:15:23;3.70;99.90
2955;DHT22;1487;51.470;6.938;2024-03-06T02:17:54;3.70;99.90
2955;DHT22;1487;51.470;6.938;2024-03-06T02:20:23;3.60;99.90
2955;DHT22;1487;51.470;6.938;2024-03-06T02:22:50;3.60;99.90
2955;DHT22;1487;51.470;6.938;2024-03-06T02:25:18;3.60;99.90
2955;DHT22;1487;51.470;6.938;2024-03-06T02:27:46;3.60;99.90
2955;DHT22;1487;51.470;6.938;2024-03-06T02:30:14;3.50;99.90
2955;DHT22;1487;51.470;6.938;2024-03-06T02:32:40;3.50;99.90
2955;DHT22;1487;51.470;6.938;2024-03-06T02:35:09;3.40;99.90
2955;DHT22;1487;51.470;6.938;2024-03-06T02:37:38;3.40;99.90
2955;DHT22;1487;51.470;6.938;2024-03-06T02:40:06;3.30;99.90
2955;DHT22;1487;51.470;6.938;2024-03-06T02:42:35;3.30;99.90
2955;DHT22;1487;51.470;6.938;2024-03-06T02:45:05;3.40;99.90
2955;DHT22;1487;51.470;6.938;2024-03-06T02:47:32;3.50;99.90
2955;DHT22;1487;51.470;6.938;2024-03-06T02:49:59;3.50;99.90
2955;DHT22;1487;51.470;6.938;2024-03-06T02:52:26;3.50;99.90
2955;DHT22;1487;51.470;6.938;2024-03-06T02:54:54;3.50;99.90
2955;DHT22;1487;51.470;6.938;2024-03-06T02:57:21;3.50;99.90
2955;DHT22;1487;51.470;6.938;2024-03-06T02:59:48;3.50;99.90
2955;DHT22;1487;51.470;6.938;2024-03-06T03:02:15;3.50;99.90
2955;DHT22;1487;51.470;6.938;2024-03-06T03:04:45;3.50;99.90
2955;DHT22;1487;51.470;6.938;2024-03-06T03:07:11;3.60;99.90
2955;DHT22;1487;51.470;6.938;2024-03-06T03:09:38;3.70;99.90
2955;DHT22;1487;51.470;6.938;2024-03-06T03:12:07;3.80;99.90
2955;DHT22;1487;51.470;6.938;2024-03-06T03:14:33;3.90;99.90
2955;DHT22;1487;51.470;6.938;2024-03-06T03:17:03;4.00;99.90
2955;DHT22;1487;51.470;6.938;2024-03-06T03:19:31;4.10;99.90
2955;DHT22;1487;51.470;6.938;2024-03-06T03:21:57;4.20;99.90
2955;DHT22;1487;51.470;6.938;2024-03-06T03:24:24;4.30;99.90
2955;DHT22;1487;51.470;6.938;2024-03-06T03:26:52;4.40;99.90
2955;DHT22;1487;51.470;6.938;2024-03-06T03:29:22;4.40;99.90
2955;DHT22;1487;51.470;6.938;2024-03-06T03:31:49;4.50;99.90
2955;DHT22;1487;51.470;6.938;2024-03-06T03:34:15;4.60;99.90
2955;DHT22;1487;51.470;6.938;2024-03-06T03:36:42;4.60;99.90
2955;DHT22;1487;51.470;6.938;2024-03-06T03:39:11;4.60;99.90
2955;DHT22;1487;51.470;6.938;2024-03-06T03:41:43;4.70;99.90
2955;DHT22;1487;51.470;6.938;2024-03-06T03:44:11;4.70;99.90
2955;DHT22;1487;51.470;6.938;2024-03-06T03:46:39;4.70;99.90
2955;DHT22;1487;51.470;6.938;2024-03-06T03:49:07;4.70;99.90
2955;DHT22;1487;51.470;6.938;2024-03-06T03:51:35;4.60;99.90
2955;DHT22;1487;51.470;6.938;2024-03-06T03:54:03;4.50;99.90
2955;DHT22;1487;51.470;6.938;2024-03-06T03:56:30;4.40;99.90
2955;DHT22;1487;51.470;6.938;2024-03-06T03:58:57;4.40;99.90
2955;DHT22;1487;51.470;6.938;2024-03-06T04:01:24;4.30;99.90
2955;DHT22;1487;51.470;6.938;2024-03-06T04:03:53;4.30;99.90
2955;DHT22;1487;51.470;6.938;2024-03-06T04:06:20;4.20;99.90
2955;DHT22;1487;51.470;6.938;2024-03-06T04:08:47;4.20;99.90
2955;DHT22;1487;51.470;6.938;2024-03-06T04:11:14;4.20;99.90
2955;DHT22;1487;51.470;6.938;2024-03-06T04:13:40;4.10;99.90
2955;DHT22;1487;51.470;6.938;2024-03-06T04:16:07;4.10;99.90
2955;DHT22;1487;51.470;6.938;2024-03-06T04:18:34;4.00;99.90
2955;DHT22;1487;51.470;6.938;2024-03-06T04:21:04;3.90;99.90
2955;DHT22;1487;51.470;6.938;2024-03-06T04:23:31;3.90;99.90
2955;DHT22;1487;51.470;6.938;2024-03-06T04:25:58;4.00;99.90
2955;DHT22;1487;51.470;6.938;2024-03-06T04:28:25;3.90;99.90
2955;DHT22;1487;51.470;6.938;2024-03-06T04:30:53;3.80;99.90
2955;DHT22;1487;51.470;6.938;2024-03-06T04:33:20;3.70;99.90
2955;DHT22;1487;51.470;6.938;2024-03-06T04:35:47;3.70;99.90
2955;DHT22;1487;51.470;6.938;2024-03-06T04:38:15;3.60;99.90
2955;DHT22;1487;51.470;6.938;2024-03-06T04:40:42;3.60;99.90
2955;DHT22;1487;51.470;6.938;2024-03-06T04:43:10;3.60;99.90
2955;DHT22;1487;51.470;6.938;2024-03-06T04:45:37;3.50;99.90
2955;DHT22;1487;51.470;6.938;2024-03-06T04:48:05;3.50;99.90
2955;DHT22;1487;51.470;6.938;2024-03-06T04:50:32;3.50;99.90
2955;DHT22;1487;51.470;6.938;2024-03-06T04:52:59;3.50;99.90
2955;DHT22;1487;51.470;6.938;2024-03-06T04:55:27;3.50;99.90
2955;DHT22;1487;51.470;6.938;2024-03-06T04:57:53;3.50;99.90
2955;DHT22;1487;51.470;6.938;2024-03-06T05:00:20;3.50;99.90
2955;DHT22;1487;51.470;6.938;2024-03-06T05:02:47;3.50;99.90
2955;DHT22;1487;51.470;6.938;2024-03-06T05:05:16;3.50;99.90
2955;DHT22;1487;51.470;6.938;2024-03-06T05:07:43;3.50;99.90
2955;DHT22;1487;51.470;6.938;2024-03-06T05:10:10;3.40;99.90
2955;DHT22;1487;51.470;6.938;2024-03-06T05:12:39;3.40;99.90
2955;DHT22;1487;51.470;6.938;2024-03-06T05:15:06;3.30;99.90
2955;DHT22;1487;51.470;6.938;2024-03-06T05:17:33;3.20;99.90
2955;DHT22;1487;51.470;6.938;2024-03-06T05:20:01;3.20;99.90
2955;DHT22;1487;51.470;6.938;2024-03-06T05:22:29;3.20;99.90
2955;DHT22;1487;51.470;6.938;2024-03-06T05:24:56;3.10;99.90
2955;DHT22;1487;51.470;6.938;2024-03-06T05:27:23;3.10;99.90
2955;DHT22;1487;51.470;6.938;2024-03-06T05:29:52;3.10;99.90
2955;DHT22;1487;51.470;6.938;2024-03-06T05:32:18;3.10;99.90
2955;DHT22;1487;51.470;6.938;2024-03-06T05:34:45;3.10;99.90
2955;DHT22;1487;51.470;6.938;2024-03-06T05:37:12;3.00;99.90
2955;DHT22;1487;51.470;6.938;2024-03-06T05:39:39;3.00;99.90
2955;DHT22;1487;51.470;6.938;2024-03-06T05:42:08;3.10;99.90
2955;DHT22;1487;51.470;6.938;2024-03-06T05:44:34;3.00;99.90
2955;DHT22;1487;51.470;6.938;2024-03-06T05:47:03;3.00;99.90
2955;DHT22;1487;51.470;6.938;2024-03-06T05:49:29;3.00;99.90
2955;DHT22;1487;51.470;6.938;2024-03-06T05:51:58;3.00;99.90
2955;DHT22;1487;51.470;6.938;2024-03-06T05:54:24;3.10;99.90
2955;DHT22;1487;51.470;6.938;2024-03-06T05:56:52;3.10;99.90
2955;DHT22;1487;51.470;6.938;2024-03-06T05:59:19;3.20;99.90
2955;DHT22;1487;51.470;6.938;2024-03-06T06:01:46;3.30;99.90
2955;DHT22;1487;51.470;6.938;2024-03-06T06:04:14;3.30;99.90
2955;DHT22;1487;51.470;6.938;2024-03-06T06:06:41;3.30;99.90
2955;DHT22;1487;51.470;6.938;2024-03-06T06:09:08;3.40;99.90
2955;DHT22;1487;51.470;6.938;2024-03-06T06:11:38;3.40;99.90
2955;DHT22;1487;51.470;6.938;2024-03-06T06:14:06;3.50;99.90
2955;DHT22;1487;51.470;6.938;2024-03-06T06:16:37;3.40;99.90
2955;DHT22;1487;51.470;6.938;2024-03-06T06:19:04;3.50;99.90
2955;DHT22;1487;51.470;6.938;2024-03-06T06:21:32;3.50;99.90
2955;DHT22;1487;51.470;6.938;2024-03-06T06:24:01;3.40;99.90
2955;DHT22;1487;51.470;6.938;2024-03-06T06:26:27;3.40;99.90
2955;DHT22;1487;51.470;6.938;2024-03-06T06:28:54;3.40;99.90
2955;DHT22;1487;51.470;6.938;2024-03-06T06:31:21;3.50;99.90
2955;DHT22;1487;51.470;6.938;2024-03-06T06:33:47;3.60;99.90
2955;DHT22;1487;51.470;6.938;2024-03-06T06:36:15;3.70;99.90
2955;DHT22;1487;51.470;6.938;2024-03-06T06:38:43;3.70;99.90
2955;DHT22;1487;51.470;6.938;2024-03-06T06:41:10;3.80;99.90
2955;DHT22;1487;51.470;6.938;2024-03-06T06:43:36;4.00;99.90
2955;DHT22;1487;51.470;6.938;2024-03-06T06:46:03;4.10;99.90
2955;DHT22;1487;51.470;6.938;2024-03-06T06:48:31;4.20;99.90
2955;DHT22;1487;51.470;6.938;2024-03-06T06:50:59;4.20;99.90
2955;DHT22;1487;51.470;6.938;2024-03-06T06:53:26;4.30;99.90
2955;DHT22;1487;51.470;6.938;2024-03-06T06:55:54;4.40;99.90
2955;DHT22;1487;51.470;6.938;2024-03-06T06:58:21;4.50;99.90
2955;DHT22;1487;51.470;6.938;2024-03-06T07:00:48;4.60;99.90
2955;DHT22;1487;51.470;6.938;2024-03-06T07:03:15;4.70;99.90
2955;DHT22;1487;51.470;6.938;2024-03-06T07:05:41;4.90;99.90
2955;DHT22;1487;51.470;6.938;2024-03-06T07:08:08;5.10;99.90
2955;DHT22;1487;51.470;6.938;2024-03-06T07:10:38;5.20;99.90
2955;DHT22;1487;51.470;6.938;2024-03-06T07:13:06;5.40;99.90
2955;DHT22;1487;51.470;6.938;2024-03-06T07:15:32;5.60;99.90
2955;DHT22;1487;51.470;6.938;2024-03-06T07:17:59;5.80;99.90
2955;DHT22;1487;51.470;6.938;2024-03-06T07:20:26;5.90;99.90
2955;DHT22;1487;51.470;6.938;2024-03-06T07:22:54;6.10;99.90
2955;DHT22;1487;51.470;6.938;2024-03-06T07:25:21;6.30;99.90
2955;DHT22;1487;51.470;6.938;2024-03-06T07:27:47;6.40;99.90
2955;DHT22;1487;51.470;6.938;2024-03-06T07:30:16;6.60;99.90
2955;DHT22;1487;51.470;6.938;2024-03-06T07:32:43;6.70;99.90
2955;DHT22;1487;51.470;6.938;2024-03-06T07:35:10;6.80;99.90
2955;DHT22;1487;51.470;6.938;2024-03-06T07:37:37;6.80;99.90
2955;DHT22;1487;51.470;6.938;2024-03-06T07:40:05;6.80;99.90
2955;DHT22;1487;51.470;6.938;2024-03-06T07:42:32;6.90;99.90
2955;DHT22;1487;51.470;6.938;2024-03-06T07:44:59;7.00;99.90
2955;DHT22;1487;51.470;6.938;2024-03-06T07:47:27;7.20;99.90
2955;DHT22;1487;51.470;6.938;2024-03-06T07:49:54;7.50;99.90
2955;DHT22;1487;51.470;6.938;2024-03-06T07:52:21;7.70;99.90
2955;DHT22;1487;51.470;6.938;2024-03-06T07:54:47;7.90;99.90
2955;DHT22;1487;51.470;6.938;2024-03-06T07:57:14;8.10;99.90
2955;DHT22;1487;51.470;6.938;2024-03-06T07:59:41;8.20;99.90
2955;DHT22;1487;51.470;6.938;2024-03-06T08:02:08;8.50;99.90
2955;DHT22;1487;51.470;6.938;2024-03-06T08:04:36;8.60;99.90
2955;DHT22;1487;51.470;6.938;2024-03-06T08:07:03;9.20;99.90
2955;DHT22;1487;51.470;6.938;2024-03-06T08:09:30;9.90;99.90
2955;DHT22;1487;51.470;6.938;2024-03-06T08:11:57;10.40;99.90
2955;DHT22;1487;51.470;6.938;2024-03-06T08:14:23;10.70;99.90
2955;DHT22;1487;51.470;6.938;2024-03-06T08:16:51;10.60;99.90
2955;DHT22;1487;51.470;6.938;2024-03-06T08:19:19;10.20;99.90
2955;DHT22;1487;51.470;6.938;2024-03-06T08:21:47;9.60;99.90
2955;DHT22;1487;51.470;6.938;2024-03-06T08:24:14;9.20;99.90
2955;DHT22;1487;51.470;6.938;2024-03-06T08:26:42;8.80;99.90
2955;DHT22;1487;51.470;6.938;2024-03-06T08:29:09;8.30;99.90
2955;DHT22;1487;51.470;6.938;2024-03-06T08:31:37;7.80;99.90
2955;DHT22;1487;51.470;6.938;2024-03-06T08:34:05;7.60;99.90
2955;DHT22;1487;51.470;6.938;2024-03-06T08:36:33;7.40;99.90
2955;DHT22;1487;51.470;6.938;2024-03-06T08:39:01;7.30;99.90
2955;DHT22;1487;51.470;6.938;2024-03-06T08:41:28;7.20;99.90
2955;DHT22;1487;51.470;6.938;2024-03-06T08:43:54;7.20;99.90
2955;DHT22;1487;51.470;6.938;2024-03-06T08:46:21;7.10;99.90
2955;DHT22;1487;51.470;6.938;2024-03-06T08:48:47;7.00;99.90
2955;DHT22;1487;51.470;6.938;2024-03-06T08:51:13;7.00;99.90
2955;DHT22;1487;51.470;6.938;2024-03-06T08:53:40;7.00;99.90
2955;DHT22;1487;51.470;6.938;2024-03-06T08:56:08;6.80;99.90
2955;DHT22;1487;51.470;6.938;2024-03-06T08:58:35;6.80;99.90
2955;DHT22;1487;51.470;6.938;2024-03-06T09:01:02;6.90;99.90
2955;DHT22;1487;51.470;6.938;2024-03-06T09:03:28;6.90;99.90
2955;DHT22;1487;51.470;6.938;2024-03-06T09:05:55;6.90;99.90
2955;DHT22;1487;51.470;6.938;2024-03-06T09:08:22;7.00;99.90
2955;DHT22;1487;51.470;6.938;2024-03-06T09:10:49;7.10;99.90
2955;DHT22;1487;51.470;6.938;2024-03-06T09:13:17;7.00;99.90
2955;DHT22;1487;51.470;6.938;2024-03-06T09:15:44;7.20;99.90
2955;DHT22;1487;51.470;6.938;2024-03-06T09:18:10;7.30;99.90
2955;DHT22;1487;51.470;6.938;2024-03-06T09:20:37;7.40;99.90
2955;DHT22;1487;51.470;6.938;2024-03-06T09:23:04;7.60;99.90
2955;DHT22;1487;51.470;6.938;2024-03-06T09:25:31;7.60;99.90
2955;DHT22;1487;51.470;6.938;2024-03-06T09:27:57;7.70;99.90
2955;DHT22;1487;51.470;6.938;2024-03-06T09:30:26;7.60;99.90
2955;DHT22;1487;51.470;6.938;2024-03-06T09:32:55;7.70;99.90
2955;DHT22;1487;51.470;6.938;2024-03-06T09:35:21;8.00;99.90
2955;DHT22;1487;51.470;6.938;2024-03-06T09:37:48;7.90;99.90
2955;DHT22;1487;51.470;6.938;2024-03-06T09:40:22;7.60;99.90
2955;DHT22;1487;51.470;6.938;2024-03-06T09:42:49;7.60;99.90
2955;DHT22;1487;51.470;6.938;2024-03-06T09:45:16;7.80;99.90
2955;DHT22;1487;51.470;6.938;2024-03-06T09:47:47;8.10;99.90
2955;DHT22;1487;51.470;6.938;2024-03-06T09:50:18;8.40;99.90
2955;DHT22;1487;51.470;6.938;2024-03-06T09:52:51;8.60;99.90
2955;DHT22;1487;51.470;6.938;2024-03-06T09:55:18;8.90;99.90
2955;DHT22;1487;51.470;6.938;2024-03-06T09:57:45;9.00;99.90
2955;DHT22;1487;51.470;6.938;2024-03-06T10:00:12;9.10;99.90
2955;DHT22;1487;51.470;6.938;2024-03-06T10:02:48;9.10;99.90
2955;DHT22;1487;51.470;6.938;2024-03-06T10:05:23;9.00;99.90
2955;DHT22;1487;51.470;6.938;2024-03-06T10:07:51;9.20;99.90
2955;DHT22;1487;51.470;6.938;2024-03-06T10:10:19;9.30;99.90
2955;DHT22;1487;51.470;6.938;2024-03-06T10:12:46;9.10;99.90
2955;DHT22;1487;51.470;6.938;2024-03-06T10:15:14;9.10;99.90
2955;DHT22;1487;51.470;6.938;2024-03-06T10:17:40;8.90;99.90
2955;DHT22;1487;51.470;6.938;2024-03-06T10:20:20;9.30;99.90
2955;DHT22;1487;51.470;6.938;2024-03-06T10:22:48;9.50;99.90
2955;DHT22;1487;51.470;6.938;2024-03-06T10:25:18;9.60;99.90
2955;DHT22;1487;51.470;6.938;2024-03-06T10:27:45;9.80;99.90
2955;DHT22;1487;51.470;6.938;2024-03-06T10:30:12;10.10;99.90
2955;DHT22;1487;51.470;6.938;2024-03-06T10:32:41;10.30;99.90
2955;DHT22;1487;51.470;6.938;2024-03-06T10:35:20;10.70;99.90
2955;DHT22;1487;51.470;6.938;2024-03-06T10:37:48;10.90;99.90
2955;DHT22;1487;51.470;6.938;2024-03-06T10:40:15;11.00;99.90
2955;DHT22;1487;51.470;6.938;2024-03-06T10:42:45;11.10;99.90
2955;DHT22;1487;51.470;6.938;2024-03-06T10:45:14;11.20;99.90
2955;DHT22;1487;51.470;6.938;2024-03-06T10:47:45;11.50;99.90
2955;DHT22;1487;51.470;6.938;2024-03-06T10:50:14;11.90;99.90
2955;DHT22;1487;51.470;6.938;2024-03-06T10:52:44;12.20;99.90
2955;DHT22;1487;51.470;6.938;2024-03-06T10:55:13;12.50;99.90
2955;DHT22;1487;51.470;6.938;2024-03-06T10:57:42;13.10;99.90
2955;DHT22;1487;51.470;6.938;2024-03-06T11:00:10;14.10;99.90
2955;DHT22;1487;51.470;6.938;2024-03-06T11:02:41;15.10;99.90
2955;DHT22;1487;51.470;6.938;2024-03-06T11:05:08;16.30;99.90
2955;DHT22;1487;51.470;6.938;2024-03-06T11:07:36;17.50;99.90
2955;DHT22;1487;51.470;6.938;2024-03-06T11:10:04;18.60;99.90
2955;DHT22;1487;51.470;6.938;2024-03-06T11:12:34;19.10;99.90
2955;DHT22;1487;51.470;6.938;2024-03-06T11:15:09;19.40;99.90
2955;DHT22;1487;51.470;6.938;2024-03-06T11:17:36;20.00;99.90
2955;DHT22;1487;51.470;6.938;2024-03-06T11:20:14;20.10;99.90
2955;DHT22;1487;51.470;6.938;2024-03-06T11:23:04;19.70;99.90
2955;DHT22;1487;51.470;6.938;2024-03-06T11:26:04;19.40;99.90
2955;DHT22;1487;51.470;6.938;2024-03-06T11:28:32;19.90;99.90
2955;DHT22;1487;51.470;6.938;2024-03-06T11:31:01;20.40;99.90
2955;DHT22;1487;51.470;6.938;2024-03-06T11:33:34;20.50;99.90
2955;DHT22;1487;51.470;6.938;2024-03-06T11:36:21;20.80;98.60
2955;DHT22;1487;51.470;6.938;2024-03-06T11:38:51;21.10;96.90
2955;DHT22;1487;51.470;6.938;2024-03-06T11:41:21;21.90;98.90
2955;DHT22;1487;51.470;6.938;2024-03-06T11:43:49;22.20;97.00
2955;DHT22;1487;51.470;6.938;2024-03-06T11:46:18;22.70;97.70
2955;DHT22;1487;51.470;6.938;2024-03-06T11:48:52;23.10;96.20
2955;DHT22;1487;51.470;6.938;2024-03-06T11:51:20;23.10;92.90
2955;DHT22;1487;51.470;6.938;2024-03-06T11:53:49;22.90;91.80
2955;DHT22;1487;51.470;6.938;2024-03-06T11:56:17;23.00;92.90
2955;DHT22;1487;51.470;6.938;2024-03-06T11:58:46;23.00;91.10
2955;DHT22;1487;51.470;6.938;2024-03-06T12:01:13;22.90;90.00
2955;DHT22;1487;51.470;6.938;2024-03-06T12:03:41;22.90;89.00
2955;DHT22;1487;51.470;6.938;2024-03-06T12:06:07;22.50;88.40
2955;DHT22;1487;51.470;6.938;2024-03-06T12:08:34;21.80;90.50
2955;DHT22;1487;51.470;6.938;2024-03-06T12:11:02;21.70;91.00
2955;DHT22;1487;51.470;6.938;2024-03-06T12:13:31;21.90;92.00
2955;DHT22;1487;51.470;6.938;2024-03-06T12:16:04;22.20;90.20
2955;DHT22;1487;51.470;6.938;2024-03-06T12:18:30;22.70;86.10
2955;DHT22;1487;51.470;6.938;2024-03-06T12:21:01;22.50;84.70
2955;DHT22;1487;51.470;6.938;2024-03-06T12:23:28;22.20;83.80
2955;DHT22;1487;51.470;6.938;2024-03-06T12:26:05;21.40;81.70
2955;DHT22;1487;51.470;6.938;2024-03-06T12:28:33;20.10;82.70
2955;DHT22;1487;51.470;6.938;2024-03-06T12:31:04;18.90;86.10
2955;DHT22;1487;51.470;6.938;2024-03-06T12:33:33;18.10;88.90
2955;DHT22;1487;51.470;6.938;2024-03-06T12:36:12;17.20;91.90
2955;DHT22;1487;51.470;6.938;2024-03-06T12:38:40;16.40;90.70
2955;DHT22;1487;51.470;6.938;2024-03-06T12:41:07;15.60;92.00
2955;DHT22;1487;51.470;6.938;2024-03-06T12:43:33;15.10;91.80
2955;DHT22;1487;51.470;6.938;2024-03-06T12:46:03;14.70;97.40
2955;DHT22;1487;51.470;6.938;2024-03-06T12:48:30;14.30;99.90
2955;DHT22;1487;51.470;6.938;2024-03-06T12:50:58;14.50;99.90
2955;DHT22;1487;51.470;6.938;2024-03-06T12:53:30;14.90;99.90
2955;DHT22;1487;51.470;6.938;2024-03-06T12:55:57;15.50;99.90
2955;DHT22;1487;51.470;6.938;2024-03-06T12:58:24;16.20;99.90
2955;DHT22;1487;51.470;6.938;2024-03-06T13:00:50;17.00;99.90
2955;DHT22;1487;51.470;6.938;2024-03-06T13:03:25;17.50;99.90
2955;DHT22;1487;51.470;6.938;2024-03-06T13:05:54;17.50;99.90
2955;DHT22;1487;51.470;6.938;2024-03-06T13:08:21;17.40;99.90
2955;DHT22;1487;51.470;6.938;2024-03-06T13:10:48;18.00;99.90
2955;DHT22;1487;51.470;6.938;2024-03-06T13:13:16;18.60;99.40
2955;DHT22;1487;51.470;6.938;2024-03-06T13:15:42;19.10;98.60
2955;DHT22;1487;51.470;6.938;2024-03-06T13:18:09;19.40;95.90
2955;DHT22;1487;51.470;6.938;2024-03-06T13:20:37;20.00;92.40
2955;DHT22;1487;51.470;6.938;2024-03-06T13:23:05;20.70;93.00
2955;DHT22;1487;51.470;6.938;2024-03-06T13:25:32;21.20;92.80
2955;DHT22;1487;51.470;6.938;2024-03-06T13:27:58;22.20;90.90
2955;DHT22;1487;51.470;6.938;2024-03-06T13:30:25;22.40;89.50
2955;DHT22;1487;51.470;6.938;2024-03-06T13:32:52;22.30;84.10
2955;DHT22;1487;51.470;6.938;2024-03-06T13:35:19;22.00;85.40
2955;DHT22;1487;51.470;6.938;2024-03-06T13:37:48;22.10;84.30
2955;DHT22;1487;51.470;6.938;2024-03-06T13:40:15;22.50;83.70
2955;DHT22;1487;51.470;6.938;2024-03-06T13:42:42;22.60;80.40
2955;DHT22;1487;51.470;6.938;2024-03-06T13:45:11;22.40;78.80
2955;DHT22;1487;51.470;6.938;2024-03-06T13:47:40;22.40;80.00
2955;DHT22;1487;51.470;6.938;2024-03-06T13:50:08;22.50;78.00
2955;DHT22;1487;51.470;6.938;2024-03-06T13:52:35;22.60;79.60
2955;DHT22;1487;51.470;6.938;2024-03-06T13:55:04;22.90;79.10
2955;DHT22;1487;51.470;6.938;2024-03-06T13:57:33;23.10;77.80
2955;DHT22;1487;51.470;6.938;2024-03-06T14:00:00;23.00;75.50
2955;DHT22;1487;51.470;6.938;2024-03-06T14:02:28;23.10;78.10
2955;DHT22;1487;51.470;6.938;2024-03-06T14:04:55;23.10;77.70
2955;DHT22;1487;51.470;6.938;2024-03-06T14:07:22;23.00;76.10
2955;DHT22;1487;51.470;6.938;2024-03-06T14:09:49;22.90;78.00
2955;DHT22;1487;51.470;6.938;2024-03-06T14:12:17;22.10;79.00
2955;DHT22;1487;51.470;6.938;2024-03-06T14:14:44;20.90;76.80
2955;DHT22;1487;51.470;6.938;2024-03-06T14:17:12;19.50;79.00
2955;DHT22;1487;51.470;6.938;2024-03-06T14:19:39;18.30;82.20
2955;DHT22;1487;51.470;6.938;2024-03-06T14:22:07;17.30;85.20
2955;DHT22;1487;51.470;6.938;2024-03-06T14:24:34;16.40;88.30
2955;DHT22;1487;51.470;6.938;2024-03-06T14:27:01;15.80;90.60
2955;DHT22;1487;51.470;6.938;2024-03-06T14:29:30;15.20;92.00
2955;DHT22;1487;51.470;6.938;2024-03-06T14:31:57;14.60;94.10
2955;DHT22;1487;51.470;6.938;2024-03-06T14:34:25;14.20;99.90
2955;DHT22;1487;51.470;6.938;2024-03-06T14:36:53;13.90;99.90
2955;DHT22;1487;51.470;6.938;2024-03-06T14:39:22;13.70;99.90
2955;DHT22;1487;51.470;6.938;2024-03-06T14:41:51;13.50;99.90
2955;DHT22;1487;51.470;6.938;2024-03-06T14:44:19;13.30;99.90
2955;DHT22;1487;51.470;6.938;2024-03-06T14:46:48;13.20;99.90
2955;DHT22;1487;51.470;6.938;2024-03-06T14:49:15;13.10;99.90
2955;DHT22;1487;51.470;6.938;2024-03-06T14:51:42;12.90;99.90
2955;DHT22;1487;51.470;6.938;2024-03-06T14:54:09;12.80;99.90
2955;DHT22;1487;51.470;6.938;2024-03-06T14:56:36;12.80;99.90
2955;DHT22;1487;51.470;6.938;2024-03-06T14:59:02;12.70;99.90
2955;DHT22;1487;51.470;6.938;2024-03-06T15:01:29;12.80;99.90
2955;DHT22;1487;51.470;6.938;2024-03-06T15:03:57;12.70;99.90
2955;DHT22;1487;51.470;6.938;2024-03-06T15:06:25;12.70;99.90
2955;DHT22;1487;51.470;6.938;2024-03-06T15:08:54;12.70;99.90
2955;DHT22;1487;51.470;6.938;2024-03-06T15:11:22;12.70;99.90
2955;DHT22;1487;51.470;6.938;2024-03-06T15:13:49;12.70;99.90
2955;DHT22;1487;51.470;6.938;2024-03-06T15:16:16;12.60;99.90
2955;DHT22;1487;51.470;6.938;2024-03-06T15:18:43;12.50;99.90
2955;DHT22;1487;51.470;6.938;2024-03-06T15:21:11;12.50;99.90
2955;DHT22;1487;51.470;6.938;2024-03-06T15:23:38;12.40;99.90
2955;DHT22;1487;51.470;6.938;2024-03-06T15:26:05;12.40;99.90
2955;DHT22;1487;51.470;6.938;2024-03-06T15:28:32;12.40;99.90
2955;DHT22;1487;51.470;6.938;2024-03-06T15:30:59;12.30;99.90
2955;DHT22;1487;51.470;6.938;2024-03-06T15:33:29;12.30;99.90
2955;DHT22;1487;51.470;6.938;2024-03-06T15:35:56;12.20;99.90
2955;DHT22;1487;51.470;6.938;2024-03-06T15:38:25;12.20;99.90
2955;DHT22;1487;51.470;6.938;2024-03-06T15:40:52;12.20;99.90
2955;DHT22;1487;51.470;6.938;2024-03-06T15:43:19;12.20;99.90
2955;DHT22;1487;51.470;6.938;2024-03-06T15:45:46;12.10;99.90
2955;DHT22;1487;51.470;6.938;2024-03-06T15:48:13;12.00;99.90
2955;DHT22;1487;51.470;6.938;2024-03-06T15:50:40;12.00;99.90
2955;DHT22;1487;51.470;6.938;2024-03-06T15:53:07;11.90;99.90
2955;DHT22;1487;51.470;6.938;2024-03-06T15:55:36;11.90;99.90
2955;DHT22;1487;51.470;6.938;2024-03-06T15:58:03;11.90;99.90
2955;DHT22;1487;51.470;6.938;2024-03-06T16:00:30;11.90;99.90
2955;DHT22;1487;51.470;6.938;2024-03-06T16:02:58;11.80;99.90
2955;DHT22;1487;51.470;6.938;2024-03-06T16:05:24;11.80;99.90
2955;DHT22;1487;51.470;6.938;2024-03-06T16:07:55;11.70;99.90
2955;DHT22;1487;51.470;6.938;2024-03-06T16:10:23;11.70;99.90
2955;DHT22;1487;51.470;6.938;2024-03-06T16:12:51;11.70;99.90
2955;DHT22;1487;51.470;6.938;2024-03-06T16:15:18;11.70;99.90
2955;DHT22;1487;51.470;6.938;2024-03-06T16:17:45;11.80;99.90